createdAt,value
2023-04-16T00:01:14.714Z,12.31
2023-04-16T00:03:41.358Z,12.54
2023-04-16T00:06:07.978Z,12.55
2023-04-16T00:08:35.852Z,12.89
2023-04-16T00:11:02.359Z,12.22
2023-04-16T00:13:28.781Z,12.39
2023-04-16T00:15:55.225Z,12.25
2023-04-16T00:18:21.697Z,12.32
2023-04-16T00:20:48.055Z,11.58
2023-04-16T00:23:14.429Z,11.69
2023-04-16T00:25:40.996Z,12.31
2023-04-16T00:28:08.330Z,11.88
2023-04-16T00:30:35.458Z,12.11
2023-04-16T00:33:02.937Z,12.15
2023-04-16T00:35:29.296Z,12.20
2023-04-16T00:37:55.723Z,12.00
2023-04-16T00:40:22.181Z,12.21
2023-04-16T00:42:48.532Z,11.98
2023-04-16T00:45:14.959Z,12.12
2023-04-16T00:47:41.372Z,12.22
2023-04-16T00:50:07.785Z,12.32
2023-04-16T00:52:34.195Z,12.09
2023-04-16T00:55:00.804Z,12.04
2023-04-16T00:57:27.923Z,12.21
2023-04-16T00:59:54.314Z,12.14
2023-04-16T01:02:20.800Z,12.07
2023-04-16T01:04:50.296Z,12.54
2023-04-16T01:07:16.668Z,12.05
2023-04-16T01:09:43.042Z,12.25
2023-04-16T01:12:09.776Z,11.98
2023-04-16T01:14:36.515Z,11.96
2023-04-16T01:17:03.391Z,12.14
2023-04-16T01:19:31.232Z,12.54
2023-04-16T01:21:57.620Z,12.18
2023-04-16T01:24:23.958Z,12.11
2023-04-16T01:26:50.326Z,12.17
2023-04-16T01:29:16.706Z,12.06
2023-04-16T01:31:43.301Z,12.15
2023-04-16T01:34:24.708Z,11.82
2023-04-16T01:36:51.915Z,11.46
2023-04-16T01:39:19.435Z,11.66
2023-04-16T01:41:45.865Z,11.22
2023-04-16T01:44:12.293Z,11.96
2023-04-16T01:46:38.909Z,12.08
2023-04-16T01:49:05.529Z,12.00
2023-04-16T01:51:32.256Z,11.23
2023-04-16T01:53:58.700Z,11.57
2023-04-16T01:56:25.132Z,11.29
2023-04-16T01:58:51.691Z,11.60
2023-04-16T02:01:18.986Z,11.08
2023-04-16T02:03:46.151Z,11.42
2023-04-16T02:06:12.666Z,11.69
2023-04-16T02:08:39.041Z,11.54
2023-04-16T02:11:05.459Z,11.66
2023-04-16T02:13:32.043Z,11.39
2023-04-16T02:15:58.634Z,11.36
2023-04-16T02:18:43.360Z,11.72
2023-04-16T02:21:11.299Z,11.25
2023-04-16T02:23:41.055Z,11.65
2023-04-16T02:26:07.467Z,11.53
2023-04-16T02:28:33.928Z,11.62
2023-04-16T02:31:00.589Z,11.44
2023-04-16T02:33:33.122Z,11.19
2023-04-16T02:36:02.854Z,11.35
2023-04-16T02:38:29.499Z,11.12
2023-04-16T02:40:55.906Z,10.95
2023-04-16T02:43:22.354Z,11.28
2023-04-16T02:45:48.796Z,11.09
2023-04-16T02:48:15.388Z,11.22
2023-04-16T02:50:41.772Z,11.25
2023-04-16T02:53:08.186Z,11.26
2023-04-16T02:55:34.595Z,10.93
2023-04-16T02:58:00.990Z,11.52
2023-04-16T03:00:27.465Z,11.32
2023-04-16T03:02:54.123Z,11.03
2023-04-16T03:05:20.886Z,11.09
2023-04-16T03:07:47.479Z,11.23
2023-04-16T03:10:15.049Z,11.40
2023-04-16T03:12:41.464Z,11.45
2023-04-16T03:15:07.832Z,10.83
2023-04-16T03:17:34.337Z,11.02
2023-04-16T03:20:01.026Z,11.06
2023-04-16T03:22:27.367Z,11.37
2023-04-16T03:24:53.769Z,11.52
2023-04-16T03:27:20.486Z,11.62
2023-04-16T03:29:47.828Z,11.27
2023-04-16T03:32:14.269Z,11.32
2023-04-16T03:34:41.205Z,11.33
2023-04-16T03:37:08.952Z,11.49
2023-04-16T03:39:35.508Z,11.70
2023-04-16T03:42:02.352Z,11.45
2023-04-16T03:44:28.903Z,11.19
2023-04-16T03:46:55.355Z,11.02
2023-04-16T03:49:22.350Z,11.41
2023-04-16T03:51:48.832Z,11.77
2023-04-16T03:54:15.570Z,11.43
2023-04-16T03:56:46.749Z,11.29
2023-04-16T03:59:13.207Z,11.66
2023-04-16T04:01:39.744Z,11.74
2023-04-16T04:04:06.839Z,11.64
2023-04-16T04:06:33.555Z,11.72
2023-04-16T04:09:00.012Z,11.83
2023-04-16T04:11:26.680Z,11.74
2023-04-16T04:13:53.923Z,11.80
2023-04-16T04:16:20.371Z,11.92
2023-04-16T04:18:46.897Z,12.05
2023-04-16T04:21:13.279Z,11.81
2023-04-16T04:23:41.555Z,11.73
2023-04-16T04:26:08.025Z,11.45
2023-04-16T04:28:35.113Z,11.76
2023-04-16T04:31:01.519Z,11.45
2023-04-16T04:33:30.221Z,11.86
2023-04-16T04:35:56.596Z,11.82
2023-04-16T04:38:25.388Z,11.49
2023-04-16T04:40:52.904Z,11.43
2023-04-16T04:43:20.796Z,11.76
2023-04-16T04:45:47.388Z,12.10
2023-04-16T04:48:13.854Z,11.84
2023-04-16T04:50:41.100Z,11.50
2023-04-16T04:53:10.302Z,12.05
2023-04-16T04:55:37.524Z,12.26
2023-04-16T04:58:04.568Z,12.02
2023-04-16T05:00:31.372Z,11.80
2023-04-16T05:02:57.872Z,12.01
2023-04-16T05:05:24.564Z,11.36
2023-04-16T05:07:50.986Z,11.65
2023-04-16T05:10:17.396Z,11.58
2023-04-16T05:12:43.743Z,11.83
2023-04-16T05:15:10.434Z,11.34
2023-04-16T05:17:36.861Z,11.54
2023-04-16T05:20:03.286Z,11.71
2023-04-16T05:22:29.709Z,11.59
2023-04-16T05:24:56.413Z,11.79
2023-04-16T05:27:22.802Z,11.70
2023-04-16T05:29:49.220Z,11.27
2023-04-16T05:32:15.640Z,11.42
2023-04-16T05:34:42.018Z,11.49
2023-04-16T05:37:08.337Z,11.69
2023-04-16T05:39:34.711Z,11.68
2023-04-16T05:42:01.531Z,11.69
2023-04-16T05:44:27.875Z,11.90
2023-04-16T05:46:54.228Z,11.57
2023-04-16T05:49:21.419Z,11.59
2023-04-16T05:51:49.115Z,12.11
2023-04-16T05:54:16.723Z,11.69
2023-04-16T05:56:43.120Z,11.55
2023-04-16T05:59:09.638Z,11.57
2023-04-16T06:01:36.204Z,11.29
2023-04-16T06:04:02.688Z,11.46
2023-04-16T06:06:29.202Z,11.70
2023-04-16T06:08:55.552Z,11.65
2023-04-16T06:11:22.182Z,11.74
2023-04-16T06:13:48.546Z,11.93
2023-04-16T06:16:14.931Z,11.83
2023-04-16T06:18:41.466Z,11.54
2023-04-16T06:21:07.831Z,11.67
2023-04-16T06:23:34.255Z,11.78
2023-04-16T06:26:00.802Z,11.35
2023-04-16T06:28:27.235Z,12.21
2023-04-16T06:30:53.624Z,11.24
2023-04-16T06:33:19.985Z,11.55
2023-04-16T06:35:46.370Z,11.60
2023-04-16T06:38:12.700Z,11.60
2023-04-16T06:40:39.090Z,11.78
2023-04-16T06:43:05.435Z,11.31
2023-04-16T06:45:31.800Z,11.55
2023-04-16T06:47:59.043Z,11.73
2023-04-16T06:50:26.599Z,11.82
2023-04-16T06:52:53.019Z,11.98
2023-04-16T06:55:19.373Z,11.88
2023-04-16T06:57:45.799Z,11.97
2023-04-16T07:00:12.239Z,12.69
2023-04-16T07:02:38.720Z,12.34
2023-04-16T07:05:05.278Z,12.34
2023-04-16T07:07:31.700Z,12.37
2023-04-16T07:09:58.079Z,12.15
2023-04-16T07:12:24.446Z,12.48
2023-04-16T07:14:50.965Z,12.56
2023-04-16T07:17:17.408Z,12.04
2023-04-16T07:19:43.805Z,12.58
2023-04-16T07:22:10.174Z,11.93
2023-04-16T07:24:36.596Z,11.89
2023-04-16T07:27:02.971Z,12.31
2023-04-16T07:29:29.335Z,12.19
2023-04-16T07:31:55.758Z,12.21
2023-04-16T07:34:22.160Z,12.34
2023-04-16T07:36:48.583Z,12.05
2023-04-16T07:39:14.954Z,12.64
2023-04-16T07:41:41.353Z,12.26
2023-04-16T07:44:08.097Z,12.38
2023-04-16T07:46:43.582Z,12.65
2023-04-16T07:49:13.408Z,12.44
2023-04-16T07:51:39.820Z,13.01
2023-04-16T07:54:06.184Z,13.22
2023-04-16T07:56:32.602Z,13.32
2023-04-16T07:59:07.920Z,12.99
2023-04-16T08:01:45.374Z,12.72
2023-04-16T08:04:11.981Z,12.68
2023-04-16T08:06:38.406Z,12.54
2023-04-16T08:09:04.952Z,12.34
2023-04-16T08:11:31.365Z,12.72
2023-04-16T08:13:57.763Z,12.62
2023-04-16T08:16:24.271Z,12.65
2023-04-16T08:18:50.852Z,12.37
2023-04-16T08:21:17.238Z,12.63
2023-04-16T08:23:43.561Z,12.75
2023-04-16T08:26:10.232Z,13.06
2023-04-16T08:28:36.692Z,13.03
2023-04-16T08:31:03.171Z,12.74
2023-04-16T08:33:29.644Z,12.47
2023-04-16T08:35:56.260Z,12.76
2023-04-16T08:38:22.755Z,13.31
2023-04-16T08:40:49.522Z,13.15
2023-04-16T08:43:15.947Z,13.48
2023-04-16T08:45:45.280Z,12.99
2023-04-16T08:48:11.731Z,13.54
2023-04-16T08:50:38.138Z,13.35
2023-04-16T08:53:04.975Z,13.29
2023-04-16T08:55:31.339Z,13.64
2023-04-16T08:57:57.717Z,14.18
2023-04-16T09:00:24.116Z,13.35
2023-04-16T09:02:51.574Z,13.21
2023-04-16T09:05:18.926Z,13.69
2023-04-16T09:07:45.352Z,13.13
2023-04-16T09:10:11.709Z,13.15
2023-04-16T09:12:38.079Z,13.18
2023-04-16T09:15:05.033Z,12.77
2023-04-16T09:17:31.650Z,13.51
2023-04-16T09:19:57.987Z,13.30
2023-04-16T09:22:24.351Z,13.44
2023-04-16T09:24:50.800Z,13.68
2023-04-16T09:27:17.779Z,13.75
2023-04-16T09:29:44.804Z,13.83
2023-04-16T09:32:11.350Z,13.83
2023-04-16T09:34:37.729Z,14.23
2023-04-16T09:37:04.113Z,13.63
2023-04-16T09:39:30.488Z,13.82
2023-04-16T09:41:56.893Z,14.18
2023-04-16T09:44:23.269Z,13.59
2023-04-16T09:46:51.190Z,13.63
2023-04-16T09:49:18.610Z,13.35
2023-04-16T09:51:45.021Z,13.69
2023-04-16T09:54:11.421Z,13.66
2023-04-16T09:56:37.793Z,13.75
2023-04-16T09:59:04.204Z,13.50
2023-04-16T10:01:30.616Z,13.81
2023-04-16T10:03:57.120Z,13.98
2023-04-16T10:06:23.569Z,13.94
2023-04-16T10:08:50.585Z,14.04
2023-04-16T10:11:17.076Z,14.09
2023-04-16T10:13:43.652Z,14.33
2023-04-16T10:16:10.606Z,14.68
2023-04-16T10:18:37.581Z,14.16
2023-04-16T10:21:04.603Z,14.40
2023-04-16T10:23:31.004Z,14.58
2023-04-16T10:25:58.157Z,14.73
2023-04-16T10:28:24.714Z,14.24
2023-04-16T10:30:54.181Z,14.24
2023-04-16T10:33:20.851Z,14.59
2023-04-16T10:35:55.014Z,14.42
2023-04-16T10:38:32.541Z,13.93
2023-04-16T10:40:59.104Z,14.42
2023-04-16T10:43:25.514Z,14.45
2023-04-16T10:45:51.897Z,14.40
2023-04-16T10:48:18.447Z,14.33
2023-04-16T10:50:44.874Z,14.15
2023-04-16T10:53:11.276Z,14.09
2023-04-16T10:55:37.643Z,14.31
2023-04-16T10:58:04.045Z,14.65
2023-04-16T11:00:31.065Z,15.08
2023-04-16T11:02:57.830Z,15.58
2023-04-16T11:05:24.999Z,15.34
2023-04-16T11:07:51.731Z,15.14
2023-04-16T11:10:18.445Z,15.53
2023-04-16T11:12:45.122Z,15.02
2023-04-16T11:15:11.620Z,15.03
2023-04-16T11:17:38.841Z,14.94
2023-04-16T11:20:05.224Z,14.77
2023-04-16T11:34:31.008Z,14.75
2023-04-16T11:36:57.369Z,14.71
2023-04-16T11:39:23.739Z,15.34
2023-04-16T11:41:50.434Z,14.74
2023-04-16T11:44:16.777Z,15.14
2023-04-16T11:46:43.154Z,14.92
2023-04-16T11:49:09.806Z,14.98
2023-04-16T11:51:36.416Z,14.68
2023-04-16T11:54:02.852Z,14.80
2023-04-16T11:56:29.350Z,15.59
2023-04-16T11:58:55.864Z,15.13
2023-04-16T12:01:22.238Z,15.67
2023-04-16T12:03:49.661Z,15.22
2023-04-16T12:06:16.492Z,14.99
2023-04-16T12:08:42.928Z,15.53
2023-04-16T12:11:09.484Z,16.19
2023-04-16T12:13:39.855Z,15.90
2023-04-16T12:16:06.309Z,15.22
2023-04-16T12:18:32.648Z,15.13
2023-04-16T12:20:59.037Z,15.25
2023-04-16T12:23:25.477Z,15.33
2023-04-16T12:25:52.134Z,15.25
2023-04-16T12:28:18.648Z,15.40
2023-04-16T12:30:45.357Z,15.16
2023-04-16T12:33:12.154Z,15.24
2023-04-16T12:35:38.996Z,15.30
2023-04-16T12:38:05.566Z,15.52
2023-04-16T12:40:32.060Z,15.22
2023-04-16T12:42:58.610Z,15.39
2023-04-16T12:45:25.039Z,15.44
2023-04-16T12:47:51.507Z,15.72
2023-04-16T12:50:18.457Z,15.20
2023-04-16T12:52:44.884Z,15.06
2023-04-16T12:55:11.224Z,15.05
2023-04-16T12:57:37.679Z,14.93
2023-04-16T13:00:06.619Z,15.05
2023-04-16T13:02:33.194Z,15.30
2023-04-16T13:04:59.627Z,14.96
2023-04-16T13:07:26.834Z,15.01
2023-04-16T13:09:53.222Z,15.12
2023-04-16T13:12:19.633Z,15.11
2023-04-16T13:14:46.091Z,14.78
2023-04-16T13:17:12.514Z,15.13
2023-04-16T13:19:38.868Z,14.77
2023-04-16T13:22:05.228Z,14.70
2023-04-16T13:24:31.558Z,14.62
2023-04-16T13:26:58.329Z,14.65
2023-04-16T13:29:25.264Z,14.73
2023-04-16T13:31:51.962Z,14.55
2023-04-16T13:34:18.367Z,14.65
2023-04-16T13:36:45.257Z,14.77
2023-04-16T13:39:12.062Z,14.78
2023-04-16T13:41:38.576Z,14.78
2023-04-16T13:44:04.916Z,14.70
2023-04-16T13:46:31.426Z,14.56
2023-04-16T13:48:58.511Z,14.63
2023-04-16T13:51:25.254Z,15.13
2023-04-16T13:53:51.660Z,15.18
2023-04-16T13:56:18.024Z,15.17
2023-04-16T13:58:44.392Z,15.05
2023-04-16T14:01:10.819Z,15.14
2023-04-16T14:03:39.083Z,15.27
2023-04-16T14:06:05.554Z,15.21
2023-04-16T14:08:31.878Z,14.90
2023-04-16T14:10:58.315Z,15.20
2023-04-16T14:13:24.767Z,15.25
2023-04-16T14:15:51.376Z,15.07
2023-04-16T14:18:17.747Z,15.24
2023-04-16T14:20:44.126Z,15.21
2023-04-16T14:23:12.378Z,15.01
2023-04-16T14:25:38.740Z,14.99
2023-04-16T14:28:05.126Z,15.03
2023-04-16T14:30:31.605Z,14.97
2023-04-16T14:32:58.016Z,15.08
2023-04-16T14:35:24.455Z,15.10
2023-04-16T14:37:50.886Z,15.17
2023-04-16T14:40:17.485Z,15.26
2023-04-16T14:42:43.929Z,15.29
2023-04-16T14:45:11.043Z,15.41
2023-04-16T14:47:38.132Z,15.33
2023-04-16T14:50:05.445Z,15.24
2023-04-16T14:52:31.906Z,15.48
2023-04-16T14:54:58.584Z,15.22
2023-04-16T14:57:25.009Z,15.33
2023-04-16T14:59:51.386Z,15.31
2023-04-16T15:02:17.958Z,15.66
2023-04-16T15:04:50.926Z,15.40
2023-04-16T15:07:27.289Z,15.98
2023-04-16T15:10:01.226Z,15.55
2023-04-16T15:12:33.180Z,15.28
2023-04-16T15:15:03.584Z,15.55
2023-04-16T15:17:31.122Z,15.35
2023-04-16T15:19:58.451Z,15.31
2023-04-16T15:22:29.442Z,15.62
2023-04-16T15:25:04.810Z,15.56
2023-04-16T15:27:34.096Z,15.47
2023-04-16T15:30:05.360Z,15.63
2023-04-16T15:32:42.020Z,15.55
2023-04-16T15:35:11.156Z,15.92
2023-04-16T15:37:38.832Z,15.94
2023-04-16T15:40:06.056Z,15.69
2023-04-16T15:42:32.479Z,15.66
2023-04-16T15:44:58.900Z,15.47
2023-04-16T15:47:25.343Z,15.29
2023-04-16T15:49:51.740Z,15.21
2023-04-16T15:52:19.855Z,15.49
2023-04-16T15:54:46.361Z,15.94
2023-04-16T15:57:12.714Z,15.76
2023-04-16T15:59:39.071Z,15.80
2023-04-16T16:02:05.936Z,15.74
2023-04-16T16:04:32.553Z,15.77
2023-04-16T16:06:58.998Z,15.75
2023-04-16T16:09:28.419Z,15.54
2023-04-16T16:11:54.866Z,14.78
2023-04-16T16:14:21.311Z,14.37
2023-04-16T16:16:47.977Z,14.02
2023-04-16T16:19:14.501Z,14.37
2023-04-16T16:21:40.991Z,14.54
2023-04-16T16:24:07.670Z,14.43
2023-04-16T16:26:34.100Z,14.35
2023-04-16T16:29:01.415Z,14.22
2023-04-16T16:31:27.990Z,14.42
2023-04-16T16:33:54.710Z,14.54
2023-04-16T16:36:21.408Z,14.29
2023-04-16T16:38:48.317Z,14.24
2023-04-16T16:41:14.661Z,14.16
2023-04-16T16:43:41.031Z,14.64
2023-04-16T16:46:07.568Z,14.51
2023-04-16T16:48:34.021Z,14.26
2023-04-16T16:51:00.683Z,13.73
2023-04-16T16:53:27.372Z,13.91
2023-04-16T16:55:53.759Z,13.77
2023-04-16T16:58:20.887Z,13.81
2023-04-16T17:00:47.428Z,13.49
2023-04-16T17:03:14.074Z,13.64
2023-04-16T17:05:40.602Z,14.16
2023-04-16T17:08:07.100Z,13.71
2023-04-16T17:10:33.508Z,13.80
2023-04-16T17:12:59.898Z,13.59
2023-04-16T17:15:26.428Z,13.74
2023-04-16T17:17:52.821Z,14.06
2023-04-16T17:20:19.985Z,14.19
2023-04-16T17:22:46.400Z,14.20
2023-04-16T17:25:12.944Z,14.48
2023-04-16T17:27:39.365Z,13.96
2023-04-16T17:30:05.994Z,14.18
2023-04-16T17:32:32.543Z,14.04
2023-04-16T17:34:59.130Z,14.22
2023-04-16T17:37:26.222Z,14.24
2023-04-16T17:39:52.825Z,14.10
2023-04-16T17:42:19.319Z,14.45
2023-04-16T17:44:45.881Z,14.42
2023-04-16T17:47:12.261Z,15.03
2023-04-16T17:49:38.663Z,14.71
2023-04-16T17:52:05.252Z,14.43
2023-04-16T17:54:31.687Z,14.72
2023-04-16T17:56:58.201Z,14.46
2023-04-16T17:59:24.670Z,14.29
2023-04-16T18:01:51.783Z,14.76
2023-04-16T18:04:18.796Z,15.10
2023-04-16T18:06:45.705Z,15.04
2023-04-16T18:09:12.272Z,14.78
2023-04-16T18:11:38.793Z,14.96
2023-04-16T18:14:05.267Z,14.71
2023-04-16T18:16:31.673Z,14.87
2023-04-16T18:18:58.298Z,14.58
2023-04-16T18:21:24.751Z,15.13
2023-04-16T18:23:51.761Z,14.94
2023-04-16T18:26:21.139Z,15.26
2023-04-16T18:28:50.349Z,14.78
2023-04-16T18:31:19.065Z,14.33
2023-04-16T18:33:56.458Z,14.14
2023-04-16T18:36:24.266Z,14.54
2023-04-16T18:39:00.901Z,14.59
2023-04-16T18:41:28.740Z,14.33
2023-04-16T18:43:55.358Z,14.33
2023-04-16T18:46:21.812Z,14.61
2023-04-16T18:48:48.300Z,14.33
2023-04-16T18:51:16.473Z,14.31
2023-04-16T18:53:45.230Z,14.50
2023-04-16T18:56:11.931Z,14.22
2023-04-16T18:58:38.550Z,14.23
2023-04-16T19:01:07.986Z,14.35
2023-04-16T19:03:34.967Z,14.17
2023-04-16T19:06:01.579Z,14.41
2023-04-16T19:08:28.287Z,13.94
2023-04-16T19:10:54.608Z,13.97
2023-04-16T19:13:20.986Z,14.20
2023-04-16T19:15:47.429Z,14.30
2023-04-16T19:18:13.877Z,14.31
2023-04-16T19:20:40.422Z,14.26
2023-04-16T19:23:08.864Z,14.24
2023-04-16T19:25:35.259Z,14.51
2023-04-16T19:28:01.769Z,14.36
2023-04-16T19:30:28.947Z,14.10
2023-04-16T19:32:56.338Z,14.09
2023-04-16T19:35:22.884Z,14.04
2023-04-16T19:37:49.458Z,13.92
2023-04-16T19:40:15.923Z,13.59
2023-04-16T19:42:45.152Z,14.24
2023-04-16T19:45:11.590Z,13.86
2023-04-16T19:47:38.688Z,13.91
2023-04-16T19:50:05.754Z,13.44
2023-04-16T19:52:37.412Z,13.64
2023-04-16T19:55:03.826Z,14.13
2023-04-16T19:57:30.571Z,13.70
2023-04-16T19:59:57.326Z,13.78
2023-04-16T20:02:23.782Z,13.58
2023-04-16T20:04:50.794Z,13.68
2023-04-16T20:07:17.501Z,13.58
2023-04-16T20:09:43.853Z,13.72
2023-04-16T20:12:10.488Z,13.84
2023-04-16T20:14:37.105Z,13.64
2023-04-16T20:17:03.723Z,13.91
2023-04-16T20:19:31.708Z,13.31
2023-04-16T20:21:58.150Z,13.36
2023-04-16T20:24:24.795Z,13.44
2023-04-16T20:26:51.148Z,13.67
2023-04-16T20:29:17.574Z,13.56
2023-04-16T20:31:45.847Z,13.34
2023-04-16T20:34:12.206Z,13.64
2023-04-16T20:36:38.601Z,13.32
2023-04-16T20:39:07.211Z,13.55
2023-04-16T20:41:33.968Z,13.63
2023-04-16T20:44:05.209Z,13.00
2023-04-16T20:46:34.144Z,12.92
2023-04-16T20:49:03.650Z,12.71
2023-04-16T20:51:30.020Z,13.03
2023-04-16T20:53:56.412Z,13.07
2023-04-16T20:56:22.770Z,13.06
2023-04-16T20:58:49.196Z,12.87
2023-04-16T21:01:16.293Z,12.76
2023-04-16T21:03:42.994Z,12.96
2023-04-16T21:06:09.461Z,13.12
2023-04-16T21:08:35.851Z,13.08
2023-04-16T21:11:02.209Z,13.00
2023-04-16T21:13:28.619Z,13.31
2023-04-16T21:15:55.194Z,12.83
2023-04-16T21:18:21.697Z,13.00
2023-04-16T21:20:48.120Z,12.81
2023-04-16T21:23:14.568Z,12.94
2023-04-16T21:25:41.058Z,12.69
2023-04-16T21:28:07.823Z,12.88
2023-04-16T21:30:34.473Z,12.73
2023-04-16T21:33:01.064Z,12.59
2023-04-16T21:35:27.482Z,12.47
2023-04-16T21:37:53.843Z,12.80
2023-04-16T21:40:20.389Z,12.71
2023-04-16T21:42:47.390Z,12.74
2023-04-16T21:45:14.619Z,12.50
2023-04-16T21:47:41.182Z,12.71
2023-04-16T21:50:07.586Z,12.48
2023-04-16T21:52:34.054Z,12.87
2023-04-16T21:55:03.954Z,12.52
2023-04-16T21:57:32.668Z,12.81
2023-04-16T21:59:59.658Z,12.39
2023-04-16T22:02:26.411Z,12.51
2023-04-16T22:04:52.854Z,12.79
2023-04-16T22:07:23.256Z,12.78
2023-04-16T22:09:50.224Z,12.72
2023-04-16T22:12:16.882Z,12.65
2023-04-16T22:14:52.162Z,12.67
2023-04-16T22:17:24.945Z,12.80
2023-04-16T22:19:53.393Z,12.91
2023-04-16T22:22:21.621Z,12.81
2023-04-16T22:24:51.889Z,13.02
2023-04-16T22:27:21.065Z,12.76
2023-04-16T22:29:50.735Z,12.46
2023-04-16T22:32:17.416Z,12.73
2023-04-16T22:34:44.126Z,12.96
2023-04-16T22:37:11.398Z,12.79
2023-04-16T22:39:37.761Z,12.79
2023-04-16T22:42:04.120Z,12.88
2023-04-16T22:44:30.666Z,12.71
2023-04-16T22:46:57.195Z,12.68
2023-04-16T22:49:23.571Z,12.86
2023-04-16T22:51:50.170Z,12.93
2023-04-16T22:54:16.534Z,12.72
2023-04-16T22:56:45.546Z,12.62
2023-04-16T22:59:15.156Z,12.59
2023-04-16T23:01:42.675Z,12.88
2023-04-16T23:04:09.191Z,13.04
2023-04-16T23:06:35.561Z,12.97
2023-04-16T23:09:04.810Z,12.81
2023-04-16T23:11:34.262Z,12.67
2023-04-16T23:14:02.449Z,12.87
2023-04-16T23:16:28.909Z,12.82
2023-04-16T23:18:57.843Z,12.78
2023-04-16T23:21:24.252Z,12.93
2023-04-16T23:23:53.527Z,12.99
2023-04-16T23:26:22.937Z,12.87
2023-04-16T23:28:52.334Z,13.29
2023-04-16T23:31:18.774Z,13.13
2023-04-16T23:33:45.212Z,13.01
2023-04-16T23:36:11.553Z,12.92
2023-04-16T23:38:37.956Z,13.07
2023-04-16T23:41:04.367Z,13.07
2023-04-16T23:43:30.816Z,12.98
2023-04-16T23:45:59.643Z,13.05
2023-04-16T23:48:28.672Z,13.42
2023-04-16T23:50:57.512Z,12.94
2023-04-16T23:53:23.906Z,13.19
2023-04-16T23:55:50.502Z,13.33
2023-04-16T23:58:19.782Z,13.07
